sensor_id;sensor_type;location;lat;lon;timestamp;pressure;altitude;pressure_sealevel;temperature;humidity
46394;BME280;32099;53.588;10.176;2023-07-31T00:02:22;100491.38;;;15.25;87.23
46394;BME280;32099;53.588;10.176;2023-07-31T00:04:47;100495.63;;;15.27;86.59
46394;BME280;32099;53.588;10.176;2023-07-31T00:07:13;100490.09;;;15.34;86.56
46394;BME280;32099;53.588;10.176;2023-07-31T00:09:39;100487.94;;;15.36;86.43
46394;BME280;32099;53.588;10.176;2023-07-31T00:12:04;100487.94;;;15.36;86.38
46394;BME280;32099;53.588;10.176;2023-07-31T00:14:30;100480.94;;;15.40;86.74
46394;BME280;32099;53.588;10.176;2023-07-31T00:16:55;100482.88;;;15.40;86.98
46394;BME280;32099;53.588;10.176;2023-07-31T00:19:20;100478.44;;;15.39;87.12
46394;BME280;32099;53.588;10.176;2023-07-31T00:21:46;100481.63;;;15.36;86.85
46394;BME280;32099;53.588;10.176;2023-07-31T00:24:11;100474.44;;;15.35;86.68
46394;BME280;32099;53.588;10.176;2023-07-31T00:26:36;100479.06;;;15.41;86.97
46394;BME280;32099;53.588;10.176;2023-07-31T00:29:01;100478.97;;;15.48;86.94
46394;BME280;32099;53.588;10.176;2023-07-31T00:31:27;100471.38;;;15.50;86.20
46394;BME280;32099;53.588;10.176;2023-07-31T00:33:55;100476.88;;;15.50;87.37
46394;BME280;32099;53.588;10.176;2023-07-31T00:36:20;100474.34;;;15.48;87.33
46394;BME280;32099;53.588;10.176;2023-07-31T00:38:46;100476.72;;;15.45;86.97
46394;BME280;32099;53.588;10.176;2023-07-31T00:41:11;100471.84;;;15.47;87.28
46394;BME280;32099;53.588;10.176;2023-07-31T00:43:37;100464.19;;;15.49;86.69
46394;BME280;32099;53.588;10.176;2023-07-31T00:46:02;100462.31;;;15.49;86.51
46394;BME280;32099;53.588;10.176;2023-07-31T00:48:27;100471.59;;;15.48;87.17
46394;BME280;32099;53.588;10.176;2023-07-31T00:50:53;100467.16;;;15.47;86.68
46394;BME280;32099;53.588;10.176;2023-07-31T00:53:18;100466.78;;;15.43;86.67
46394;BME280;32099;53.588;10.176;2023-07-31T00:55:44;100463.16;;;15.43;86.70
46394;BME280;32099;53.588;10.176;2023-07-31T00:58:10;100451.78;;;15.39;87.23
46394;BME280;32099;53.588;10.176;2023-07-31T01:00:35;100455.84;;;15.37;87.45
46394;BME280;32099;53.588;10.176;2023-07-31T01:03:00;100451.16;;;15.37;87.80
46394;BME280;32099;53.588;10.176;2023-07-31T01:05:49;100455.84;;;15.37;87.49
46394;BME280;32099;53.588;10.176;2023-07-31T01:08:37;100448.22;;;15.39;87.19
46394;BME280;32099;53.588;10.176;2023-07-31T01:14:08;100441.66;;;15.40;86.81
46394;BME280;32099;53.588;10.176;2023-07-31T01:16:33;100425.03;;;15.28;86.87
46394;BME280;32099;53.588;10.176;2023-07-31T01:18:58;100431.78;;;15.32;87.20
46394;BME280;32099;53.588;10.176;2023-07-31T01:21:36;100431.59;;;15.27;88.10
46394;BME280;32099;53.588;10.176;2023-07-31T01:27:02;100426.97;;;15.27;86.74
46394;BME280;32099;53.588;10.176;2023-07-31T01:32:01;100421.00;;;15.31;86.69
46394;BME280;32099;53.588;10.176;2023-07-31T01:34:28;100418.25;;;15.31;86.41
46394;BME280;32099;53.588;10.176;2023-07-31T01:36:55;100413.63;;;15.31;86.89
46394;BME280;32099;53.588;10.176;2023-07-31T01:39:21;100413.00;;;15.29;86.96
46394;BME280;32099;53.588;10.176;2023-07-31T01:41:47;100408.56;;;15.28;86.65
46394;BME280;32099;53.588;10.176;2023-07-31T01:44:12;100407.94;;;15.26;87.29
46394;BME280;32099;53.588;10.176;2023-07-31T01:46:37;100410.91;;;15.24;86.31
46394;BME280;32099;53.588;10.176;2023-07-31T01:49:03;100402.44;;;15.26;86.10
46394;BME280;32099;53.588;10.176;2023-07-31T01:51:30;100400.75;;;15.25;86.41
46394;BME280;32099;53.588;10.176;2023-07-31T01:53:58;100399.69;;;15.26;86.77
46394;BME280;32099;53.588;10.176;2023-07-31T01:56:24;100397.81;;;15.26;86.08
46394;BME280;32099;53.588;10.176;2023-07-31T01:58:49;100399.25;;;15.29;86.15
46394;BME280;32099;53.588;10.176;2023-07-31T02:01:15;100398.63;;;15.27;86.54
46394;BME280;32099;53.588;10.176;2023-07-31T02:03:40;100394.00;;;15.27;86.59
46394;BME280;32099;53.588;10.176;2023-07-31T02:06:07;100392.06;;;15.28;86.98
46394;BME280;32099;53.588;10.176;2023-07-31T02:08:32;100388.50;;;15.27;87.41
46394;BME280;32099;53.588;10.176;2023-07-31T02:10:57;100380.25;;;15.27;87.67
46394;BME280;32099;53.588;10.176;2023-07-31T02:13:22;100386.38;;;15.30;87.23
46394;BME280;32099;53.588;10.176;2023-07-31T02:15:48;100383.63;;;15.30;87.14
46394;BME280;32099;53.588;10.176;2023-07-31T02:18:13;100380.25;;;15.27;88.21
46394;BME280;32099;53.588;10.176;2023-07-31T02:20:38;100388.28;;;15.29;87.84
46394;BME280;32099;53.588;10.176;2023-07-31T02:23:04;100378.97;;;15.30;87.80
46394;BME280;32099;53.588;10.176;2023-07-31T02:25:29;100384.47;;;15.30;87.99
46394;BME280;32099;53.588;10.176;2023-07-31T02:27:55;100374.91;;;15.33;88.12
46394;BME280;32099;53.588;10.176;2023-07-31T02:30:20;100382.06;;;15.40;87.05
46394;BME280;32099;53.588;10.176;2023-07-31T02:32:46;100376.94;;;15.44;87.41
46394;BME280;32099;53.588;10.176;2023-07-31T02:35:11;100367.50;;;15.40;87.10
46394;BME280;32099;53.588;10.176;2023-07-31T02:37:40;100367.63;;;15.45;87.39
46394;BME280;32099;53.588;10.176;2023-07-31T02:40:06;100364.69;;;15.47;87.67
46394;BME280;32099;53.588;10.176;2023-07-31T02:42:31;100352.22;;;15.44;87.37
46394;BME280;32099;53.588;10.176;2023-07-31T02:44:57;100366.81;;;15.45;87.99
46394;BME280;32099;53.588;10.176;2023-07-31T02:47:22;100365.50;;;15.47;89.18
46394;BME280;32099;53.588;10.176;2023-07-31T02:49:47;100362.31;;;15.50;87.80
46394;BME280;32099;53.588;10.176;2023-07-31T02:52:13;100358.03;;;15.54;87.50
46394;BME280;32099;53.588;10.176;2023-07-31T02:54:38;100350.66;;;15.55;87.60
46394;BME280;32099;53.588;10.176;2023-07-31T02:57:04;100342.41;;;15.55;88.15
46394;BME280;32099;53.588;10.176;2023-07-31T02:59:29;100345.53;;;15.58;86.94
46394;BME280;32099;53.588;10.176;2023-07-31T03:01:55;100342.97;;;15.64;87.12
46394;BME280;32099;53.588;10.176;2023-07-31T03:04:20;100337.22;;;15.65;87.55
46394;BME280;32099;53.588;10.176;2023-07-31T03:06:45;100345.25;;;15.67;87.34
46394;BME280;32099;53.588;10.176;2023-07-31T03:09:10;100345.63;;;15.70;88.02
46394;BME280;32099;53.588;10.176;2023-07-31T03:11:36;100343.97;;;15.69;87.54
46394;BME280;32099;53.588;10.176;2023-07-31T03:14:01;100343.34;;;15.67;87.58
46394;BME280;32099;53.588;10.176;2023-07-31T03:16:26;100338.06;;;15.66;87.66
46394;BME280;32099;53.588;10.176;2023-07-31T03:18:52;100339.13;;;15.65;88.27
46394;BME280;32099;53.588;10.176;2023-07-31T03:21:17;100334.25;;;15.67;87.35
46394;BME280;32099;53.588;10.176;2023-07-31T03:23:42;100326.00;;;15.67;87.80
46394;BME280;32099;53.588;10.176;2023-07-31T03:26:08;100334.03;;;15.68;87.62
46394;BME280;32099;53.588;10.176;2023-07-31T03:28:34;100317.31;;;15.70;87.43
46394;BME280;32099;53.588;10.176;2023-07-31T03:30:59;100317.69;;;15.73;87.50
46394;BME280;32099;53.588;10.176;2023-07-31T03:33:24;100313.88;;;15.74;87.30
46394;BME280;32099;53.588;10.176;2023-07-31T03:35:50;100313.63;;;15.76;88.80
46394;BME280;32099;53.588;10.176;2023-07-31T03:38:15;100310.50;;;15.72;88.02
46394;BME280;32099;53.588;10.176;2023-07-31T03:40:40;100316.63;;;15.74;88.21
46394;BME280;32099;53.588;10.176;2023-07-31T03:43:06;100318.06;;;15.77;88.32
46394;BME280;32099;53.588;10.176;2023-07-31T03:45:31;100320.59;;;15.79;88.38
46394;BME280;32099;53.588;10.176;2023-07-31T03:47:57;100313.81;;;15.81;88.75
46394;BME280;32099;53.588;10.176;2023-07-31T03:50:22;100316.13;;;15.84;87.92
46394;BME280;32099;53.588;10.176;2023-07-31T03:52:47;100314.59;;;15.88;88.63
46394;BME280;32099;53.588;10.176;2023-07-31T03:55:13;100318.19;;;15.89;88.00
46394;BME280;32099;53.588;10.176;2023-07-31T03:57:38;100315.44;;;15.89;88.04
46394;BME280;32099;53.588;10.176;2023-07-31T04:00:03;100316.88;;;15.92;88.08
46394;BME280;32099;53.588;10.176;2023-07-31T04:02:29;100320.00;;;15.95;88.87
46394;BME280;32099;53.588;10.176;2023-07-31T04:04:55;100317.06;;;15.97;88.76
46394;BME280;32099;53.588;10.176;2023-07-31T04:07:20;100317.44;;;16.00;88.48
46394;BME280;32099;53.588;10.176;2023-07-31T04:09:45;100313.81;;;16.00;89.07
46394;BME280;32099;53.588;10.176;2023-07-31T04:12:11;100314.31;;;15.97;89.29
46394;BME280;32099;53.588;10.176;2023-07-31T04:14:36;100310.88;;;16.01;88.75
46394;BME280;32099;53.588;10.176;2023-07-31T04:17:02;100314.81;;;16.06;89.42
46394;BME280;32099;53.588;10.176;2023-07-31T04:19:27;100302.16;;;16.04;89.02
46394;BME280;32099;53.588;10.176;2023-07-31T04:21:52;100304.69;;;16.06;89.31
46394;BME280;32099;53.588;10.176;2023-07-31T04:24:18;100297.25;;;16.07;88.86
46394;BME280;32099;53.588;10.176;2023-07-31T04:26:49;100300.41;;;16.10;88.90
46394;BME280;32099;53.588;10.176;2023-07-31T04:29:15;100291.28;;;16.10;89.03
46394;BME280;32099;53.588;10.176;2023-07-31T04:31:41;100299.91;;;16.13;89.32
46394;BME280;32099;53.588;10.176;2023-07-31T04:34:06;100293.34;;;16.14;88.81
46394;BME280;32099;53.588;10.176;2023-07-31T04:36:32;100296.72;;;16.16;88.84
46394;BME280;32099;53.588;10.176;2023-07-31T04:38:58;100281.03;;;16.17;89.04
46394;BME280;32099;53.588;10.176;2023-07-31T04:41:23;100285.47;;;16.18;89.48
46394;BME280;32099;53.588;10.176;2023-07-31T04:43:49;100283.56;;;16.18;88.92
46394;BME280;32099;53.588;10.176;2023-07-31T04:46:14;100286.09;;;16.20;89.12
46394;BME280;32099;53.588;10.176;2023-07-31T04:48:40;100282.72;;;16.18;90.37
46394;BME280;32099;53.588;10.176;2023-07-31T04:51:05;100275.69;;;16.22;89.37
46394;BME280;32099;53.588;10.176;2023-07-31T04:53:30;100287.06;;;16.26;89.22
46394;BME280;32099;53.588;10.176;2023-07-31T04:55:55;100285.63;;;16.23;89.22
46394;BME280;32099;53.588;10.176;2023-07-31T04:58:21;100269.81;;;16.18;89.43
46394;BME280;32099;53.588;10.176;2023-07-31T05:00:46;100283.94;;;16.22;90.07
46394;BME280;32099;53.588;10.176;2023-07-31T05:03:11;100283.13;;;16.22;89.49
46394;BME280;32099;53.588;10.176;2023-07-31T05:05:36;100281.81;;;16.24;89.95
46394;BME280;32099;53.588;10.176;2023-07-31T05:08:02;100277.13;;;16.25;89.22
46394;BME280;32099;53.588;10.176;2023-07-31T05:10:27;100284.19;;;16.21;89.44
46394;BME280;32099;53.588;10.176;2023-07-31T05:12:53;100287.44;;;16.29;88.95
46394;BME280;32099;53.588;10.176;2023-07-31T05:15:18;100285.91;;;16.33;88.87
46394;BME280;32099;53.588;10.176;2023-07-31T05:17:43;100288.19;;;16.37;89.65
46394;BME280;32099;53.588;10.176;2023-07-31T05:20:09;100286.28;;;16.37;88.68
46394;BME280;32099;53.588;10.176;2023-07-31T05:22:34;100289.63;;;16.39;88.62
46394;BME280;32099;53.588;10.176;2023-07-31T05:24:59;100284.75;;;16.41;88.93
46394;BME280;32099;53.588;10.176;2023-07-31T05:27:25;100274.81;;;16.40;89.18
46394;BME280;32099;53.588;10.176;2023-07-31T05:29:50;100283.06;;;16.40;88.59
46394;BME280;32099;53.588;10.176;2023-07-31T05:32:15;100276.50;;;16.41;89.94
46394;BME280;32099;53.588;10.176;2023-07-31T05:34:41;100277.56;;;16.40;89.29
46394;BME280;32099;53.588;10.176;2023-07-31T05:37:07;100262.94;;;16.40;89.17
46394;BME280;32099;53.588;10.176;2023-07-31T05:39:32;100271.00;;;16.41;89.73
46394;BME280;32099;53.588;10.176;2023-07-31T05:41:57;100268.25;;;16.41;89.43
46394;BME280;32099;53.588;10.176;2023-07-31T05:44:22;100269.06;;;16.42;89.53
46394;BME280;32099;53.588;10.176;2023-07-31T05:46:48;100263.34;;;16.43;88.64
46394;BME280;32099;53.588;10.176;2023-07-31T05:49:13;100270.28;;;16.46;89.02
46394;BME280;32099;53.588;10.176;2023-07-31T05:51:38;100267.28;;;16.47;89.99
46394;BME280;32099;53.588;10.176;2023-07-31T05:54:04;100266.22;;;16.48;89.78
46394;BME280;32099;53.588;10.176;2023-07-31T05:56:29;100260.25;;;16.52;88.60
46394;BME280;32099;53.588;10.176;2023-07-31T05:58:54;100255.97;;;16.56;89.25
46394;BME280;32099;53.588;10.176;2023-07-31T06:01:19;100249.16;;;16.58;90.01
46394;BME280;32099;53.588;10.176;2023-07-31T06:03:46;100247.47;;;16.57;88.73
46394;BME280;32099;53.588;10.176;2023-07-31T06:06:11;100243.41;;;16.60;88.57
46394;BME280;32099;53.588;10.176;2023-07-31T06:08:36;100242.47;;;16.66;89.04
46394;BME280;32099;53.588;10.176;2023-07-31T06:11:02;100246.91;;;16.67;89.55
46394;BME280;32099;53.588;10.176;2023-07-31T06:13:27;100244.16;;;16.67;89.38
46394;BME280;32099;53.588;10.176;2023-07-31T06:15:53;100243.91;;;16.69;89.72
46394;BME280;32099;53.588;10.176;2023-07-31T06:18:18;100249.41;;;16.69;89.23
46394;BME280;32099;53.588;10.176;2023-07-31T06:20:43;100251.47;;;16.73;89.51
46394;BME280;32099;53.588;10.176;2023-07-31T06:23:09;100251.22;;;16.75;90.00
46394;BME280;32099;53.588;10.176;2023-07-31T06:25:34;100243.44;;;16.72;88.60
46394;BME280;32099;53.588;10.176;2023-07-31T06:27:59;100248.94;;;16.72;90.00
46394;BME280;32099;53.588;10.176;2023-07-31T06:30:25;100249.78;;;16.72;89.50
46394;BME280;32099;53.588;10.176;2023-07-31T06:32:50;100245.13;;;16.73;89.17
46394;BME280;32099;53.588;10.176;2023-07-31T06:35:15;100249.06;;;16.77;89.92
46394;BME280;32099;53.588;10.176;2023-07-31T06:37:40;100243.34;;;16.78;88.97
46394;BME280;32099;53.588;10.176;2023-07-31T06:40:08;100249.22;;;16.82;88.97
46394;BME280;32099;53.588;10.176;2023-07-31T06:42:34;100237.13;;;16.83;88.98
46394;BME280;32099;53.588;10.176;2023-07-31T06:45:00;100242.84;;;16.81;89.51
46394;BME280;32099;53.588;10.176;2023-07-31T06:47:26;100242.13;;;16.86;88.99
46394;BME280;32099;53.588;10.176;2023-07-31T06:49:51;100238.91;;;16.89;89.71
46394;BME280;32099;53.588;10.176;2023-07-31T06:52:16;100232.31;;;16.90;89.23
46394;BME280;32099;53.588;10.176;2023-07-31T06:54:42;100231.88;;;16.93;89.46
46394;BME280;32099;53.588;10.176;2023-07-31T06:57:07;100235.25;;;16.95;89.29
46394;BME280;32099;53.588;10.176;2023-07-31T06:59:33;100244.09;;;16.98;89.22
46394;BME280;32099;53.588;10.176;2023-07-31T07:01:58;100240.25;;;16.99;88.89
46394;BME280;32099;53.588;10.176;2023-07-31T07:07:42;100236.78;;;17.03;88.51
46394;BME280;32099;53.588;10.176;2023-07-31T07:10:08;100241.94;;;17.00;89.86
46394;BME280;32099;53.588;10.176;2023-07-31T07:12:34;100244.09;;;16.98;90.03
46394;BME280;32099;53.588;10.176;2023-07-31T07:15:00;100244.34;;;16.96;89.65
46394;BME280;32099;53.588;10.176;2023-07-31T07:17:26;100246.84;;;16.98;89.22
46394;BME280;32099;53.588;10.176;2023-07-31T07:19:52;100245.31;;;17.02;89.79
46394;BME280;32099;53.588;10.176;2023-07-31T07:22:17;100243.97;;;17.04;89.54
46394;BME280;32099;53.588;10.176;2023-07-31T07:24:43;100242.09;;;17.05;90.15
46394;BME280;32099;53.588;10.176;2023-07-31T07:27:08;100240.16;;;17.05;89.95
46394;BME280;32099;53.588;10.176;2023-07-31T07:29:34;100245.66;;;17.05;90.03
46394;BME280;32099;53.588;10.176;2023-07-31T07:31:59;100242.91;;;17.05;90.87
46394;BME280;32099;53.588;10.176;2023-07-31T07:34:28;100240.03;;;17.00;90.42
46394;BME280;32099;53.588;10.176;2023-07-31T07:36:54;100237.28;;;17.00;91.18
46394;BME280;32099;53.588;10.176;2023-07-31T07:39:20;100238.47;;;17.04;91.73
46394;BME280;32099;53.588;10.176;2023-07-31T07:41:46;100235.97;;;17.03;93.69
46394;BME280;32099;53.588;10.176;2023-07-31T07:44:12;100226.88;;;17.02;94.10
46394;BME280;32099;53.588;10.176;2023-07-31T07:46:38;100231.06;;;17.05;92.07
46394;BME280;32099;53.588;10.176;2023-07-31T07:49:03;100229.50;;;17.09;91.49
46394;BME280;32099;53.588;10.176;2023-07-31T07:51:29;100228.41;;;17.10;92.06
46394;BME280;32099;53.588;10.176;2023-07-31T07:53:56;100220.41;;;17.08;91.01
46394;BME280;32099;53.588;10.176;2023-07-31T07:56:21;100224.84;;;17.09;90.82
46394;BME280;32099;53.588;10.176;2023-07-31T07:58:49;100221.47;;;17.07;90.91
46394;BME280;32099;53.588;10.176;2023-07-31T08:01:15;100225.31;;;17.06;90.64
46394;BME280;32099;53.588;10.176;2023-07-31T08:03:40;100226.38;;;17.05;90.78
46394;BME280;32099;53.588;10.176;2023-07-31T08:06:05;100226.38;;;17.05;90.74
46394;BME280;32099;53.588;10.176;2023-07-31T08:08:31;100217.03;;;17.06;90.59
46394;BME280;32099;53.588;10.176;2023-07-31T08:10:56;100217.66;;;17.08;91.08
46394;BME280;32099;53.588;10.176;2023-07-31T08:13:21;100213.09;;;17.14;91.29
46394;BME280;32099;53.588;10.176;2023-07-31T08:15:47;100204.72;;;17.21;90.83
46394;BME280;32099;53.588;10.176;2023-07-31T08:18:12;100199.69;;;17.30;90.21
46394;BME280;32099;53.588;10.176;2023-07-31T08:20:37;100205.88;;;17.37;90.64
46394;BME280;32099;53.588;10.176;2023-07-31T08:23:03;100207.66;;;17.43;90.66
46394;BME280;32099;53.588;10.176;2023-07-31T08:25:28;100209.47;;;17.49;90.50
46394;BME280;32099;53.588;10.176;2023-07-31T08:27:53;100208.13;;;17.52;90.08
46394;BME280;32099;53.588;10.176;2023-07-31T08:30:19;100200.94;;;17.51;89.72
46394;BME280;32099;53.588;10.176;2023-07-31T08:32:44;100194.69;;;17.55;89.96
46394;BME280;32099;53.588;10.176;2023-07-31T08:35:09;100177.22;;;17.62;91.06
46394;BME280;32099;53.588;10.176;2023-07-31T08:37:35;100184.16;;;17.64;90.38
46394;BME280;32099;53.588;10.176;2023-07-31T08:40:01;100174.66;;;17.72;90.64
46394;BME280;32099;53.588;10.176;2023-07-31T08:42:27;100172.03;;;17.77;90.25
46394;BME280;32099;53.588;10.176;2023-07-31T08:44:52;100177.63;;;17.82;89.47
46394;BME280;32099;53.588;10.176;2023-07-31T08:47:20;100169.69;;;17.86;90.58
46394;BME280;32099;53.588;10.176;2023-07-31T08:49:45;100174.59;;;17.84;89.47
46394;BME280;32099;53.588;10.176;2023-07-31T08:52:12;100179.28;;;17.83;89.05
46394;BME280;32099;53.588;10.176;2023-07-31T08:54:37;100179.78;;;17.80;89.52
46394;BME280;32099;53.588;10.176;2023-07-31T08:57:03;100174.78;;;17.77;88.62
46394;BME280;32099;53.588;10.176;2023-07-31T08:59:29;100177.16;;;17.73;89.40
46394;BME280;32099;53.588;10.176;2023-07-31T09:01:57;100175.75;;;17.71;89.45
46394;BME280;32099;53.588;10.176;2023-07-31T09:04:28;100170.47;;;17.69;89.79
46394;BME280;32099;53.588;10.176;2023-07-31T09:06:56;100173.47;;;17.68;90.16
46394;BME280;32099;53.588;10.176;2023-07-31T09:09:25;100170.84;;;17.61;89.88
46394;BME280;32099;53.588;10.176;2023-07-31T09:11:50;100171.09;;;17.60;90.09
46394;BME280;32099;53.588;10.176;2023-07-31T09:14:17;100167.59;;;17.64;90.91
46394;BME280;32099;53.588;10.176;2023-07-31T09:16:53;100164.38;;;17.67;91.06
46394;BME280;32099;53.588;10.176;2023-07-31T09:21:59;100154.97;;;17.80;91.28
46394;BME280;32099;53.588;10.176;2023-07-31T09:24:25;100154.38;;;17.78;89.91
46394;BME280;32099;53.588;10.176;2023-07-31T09:26:53;100151.38;;;17.80;91.07
46394;BME280;32099;53.588;10.176;2023-07-31T09:29:19;100166.09;;;17.85;90.47
46394;BME280;32099;53.588;10.176;2023-07-31T09:31:45;100152.31;;;17.85;91.24
46394;BME280;32099;53.588;10.176;2023-07-31T09:34:10;100163.56;;;17.84;89.98
46394;BME280;32099;53.588;10.176;2023-07-31T09:36:45;100149.22;;;17.82;89.64
46394;BME280;32099;53.588;10.176;2023-07-31T09:39:10;100146.09;;;17.78;90.16
46394;BME280;32099;53.588;10.176;2023-07-31T09:41:42;100142.50;;;17.78;90.67
46394;BME280;32099;53.588;10.176;2023-07-31T09:44:12;100145.88;;;17.80;90.94
46394;BME280;32099;53.588;10.176;2023-07-31T09:46:37;100138.41;;;17.80;93.08
46394;BME280;32099;53.588;10.176;2023-07-31T09:49:03;100127.72;;;17.84;90.68
46394;BME280;32099;53.588;10.176;2023-07-31T09:51:30;100135.50;;;17.87;89.91
46394;BME280;32099;53.588;10.176;2023-07-31T09:53:56;100123.75;;;17.92;90.73
46394;BME280;32099;53.588;10.176;2023-07-31T09:56:21;100112.59;;;17.98;90.53
46394;BME280;32099;53.588;10.176;2023-07-31T09:58:48;100115.63;;;18.14;90.35
46394;BME280;32099;53.588;10.176;2023-07-31T10:01:14;100110.88;;;18.26;89.28
46394;BME280;32099;53.588;10.176;2023-07-31T10:03:39;100107.09;;;18.32;88.75
46394;BME280;32099;53.588;10.176;2023-07-31T10:06:05;100101.91;;;18.36;88.69
46394;BME280;32099;53.588;10.176;2023-07-31T10:08:34;100103.84;;;18.35;88.78
46394;BME280;32099;53.588;10.176;2023-07-31T10:11:01;100095.91;;;18.39;89.03
46394;BME280;32099;53.588;10.176;2023-07-31T10:13:30;100105.03;;;18.40;87.53
46394;BME280;32099;53.588;10.176;2023-07-31T10:15:58;100106.63;;;18.35;87.49
46394;BME280;32099;53.588;10.176;2023-07-31T10:18:25;100104.59;;;18.31;88.14
46394;BME280;32099;53.588;10.176;2023-07-31T10:20:51;100101.00;;;18.30;87.71
46394;BME280;32099;53.588;10.176;2023-07-31T10:23:17;100099.31;;;18.29;87.46
46394;BME280;32099;53.588;10.176;2023-07-31T10:25:43;100103.19;;;18.28;88.53
46394;BME280;32099;53.588;10.176;2023-07-31T10:28:09;100095.75;;;18.29;87.56
46394;BME280;32099;53.588;10.176;2023-07-31T10:30:36;100105.38;;;18.26;87.21
46394;BME280;32099;53.588;10.176;2023-07-31T10:33:03;100100.06;;;18.25;87.65
46394;BME280;32099;53.588;10.176;2023-07-31T10:35:30;100108.94;;;18.27;87.49
46394;BME280;32099;53.588;10.176;2023-07-31T10:37:55;100088.88;;;18.31;88.25
46394;BME280;32099;53.588;10.176;2023-07-31T10:40:34;100080.38;;;18.33;88.02
46394;BME280;32099;53.588;10.176;2023-07-31T10:43:01;100088.72;;;18.38;88.23
46394;BME280;32099;53.588;10.176;2023-07-31T10:45:33;100078.59;;;18.44;88.33
46394;BME280;32099;53.588;10.176;2023-07-31T10:48:04;100075.00;;;18.43;88.16
46394;BME280;32099;53.588;10.176;2023-07-31T10:50:31;100076.09;;;18.42;88.40
46394;BME280;32099;53.588;10.176;2023-07-31T10:52:58;100072.75;;;18.40;88.49
46394;BME280;32099;53.588;10.176;2023-07-31T10:57:53;100067.81;;;18.42;88.67
46394;BME280;32099;53.588;10.176;2023-07-31T11:03:02;100075.16;;;18.37;87.91
46394;BME280;32099;53.588;10.176;2023-07-31T11:05:40;100067.66;;;18.32;88.98
46394;BME280;32099;53.588;10.176;2023-07-31T11:11:15;100062.94;;;18.32;89.08
46394;BME280;32099;53.588;10.176;2023-07-31T11:13:44;100060.47;;;18.31;89.15
46394;BME280;32099;53.588;10.176;2023-07-31T11:16:12;100067.38;;;18.33;89.70
46394;BME280;32099;53.588;10.176;2023-07-31T11:18:38;100076.25;;;18.35;89.32
46394;BME280;32099;53.588;10.176;2023-07-31T11:21:05;100056.44;;;18.39;89.70
46394;BME280;32099;53.588;10.176;2023-07-31T11:23:31;100053.41;;;18.40;90.24
46394;BME280;32099;53.588;10.176;2023-07-31T11:26:00;100058.69;;;18.42;89.68
46394;BME280;32099;53.588;10.176;2023-07-31T11:28:25;100056.28;;;18.45;89.24
46394;BME280;32099;53.588;10.176;2023-07-31T11:30:50;100048.38;;;18.54;89.53
46394;BME280;32099;53.588;10.176;2023-07-31T11:33:16;100039.41;;;18.64;90.14
46394;BME280;32099;53.588;10.176;2023-07-31T11:35:43;100041.41;;;18.69;90.11
46394;BME280;32099;53.588;10.176;2023-07-31T11:38:23;100037.31;;;18.71;90.02
46394;BME280;32099;53.588;10.176;2023-07-31T11:40:50;100036.22;;;18.72;90.37
46394;BME280;32099;53.588;10.176;2023-07-31T11:43:17;100035.13;;;18.73;90.83
46394;BME280;32099;53.588;10.176;2023-07-31T11:45:49;100033.13;;;18.69;90.00
46394;BME280;32099;53.588;10.176;2023-07-31T11:48:23;100034.16;;;18.62;90.88
46394;BME280;32099;53.588;10.176;2023-07-31T11:50:50;100032.72;;;18.60;90.86
46394;BME280;32099;53.588;10.176;2023-07-31T11:53:16;100041.53;;;18.57;92.43
46394;BME280;32099;53.588;10.176;2023-07-31T11:55:44;100041.78;;;18.55;92.72
46394;BME280;32099;53.588;10.176;2023-07-31T11:58:10;100033.25;;;18.57;92.61
46394;BME280;32099;53.588;10.176;2023-07-31T12:00:36;100038.94;;;18.50;93.43
46394;BME280;32099;53.588;10.176;2023-07-31T12:03:01;100040.22;;;18.42;94.34
46394;BME280;32099;53.588;10.176;2023-07-31T12:05:27;100041.19;;;18.36;93.07
46394;BME280;32099;53.588;10.176;2023-07-31T12:07:53;100042.97;;;18.42;92.93
46394;BME280;32099;53.588;10.176;2023-07-31T12:10:26;100041.94;;;18.48;92.61
46394;BME280;32099;53.588;10.176;2023-07-31T12:13:03;100041.44;;;18.52;91.39
46394;BME280;32099;53.588;10.176;2023-07-31T12:15:33;100050.16;;;18.43;92.10
46394;BME280;32099;53.588;10.176;2023-07-31T12:18:08;100047.09;;;18.40;93.92
46394;BME280;32099;53.588;10.176;2023-07-31T12:20:41;100044.06;;;18.41;93.20
46394;BME280;32099;53.588;10.176;2023-07-31T12:23:12;100038.72;;;18.34;92.99
46394;BME280;32099;53.588;10.176;2023-07-31T12:25:59;100037.28;;;18.32;92.06
46394;BME280;32099;53.588;10.176;2023-07-31T12:28:25;100023.22;;;18.33;91.56
46394;BME280;32099;53.588;10.176;2023-07-31T12:30:51;100026.91;;;18.39;90.93
46394;BME280;32099;53.588;10.176;2023-07-31T12:33:16;100024.75;;;18.41;90.13
46394;BME280;32099;53.588;10.176;2023-07-31T12:35:45;100024.75;;;18.41;90.28
46394;BME280;32099;53.588;10.176;2023-07-31T12:38:12;100021.66;;;18.38;89.79
46394;BME280;32099;53.588;10.176;2023-07-31T12:40:38;100017.72;;;18.33;88.87
46394;BME280;32099;53.588;10.176;2023-07-31T12:43:04;100008.25;;;18.29;88.68
46394;BME280;32099;53.588;10.176;2023-07-31T12:45:30;100005.44;;;18.24;88.65
46394;BME280;32099;53.588;10.176;2023-07-31T12:47:56;100002.34;;;18.21;88.87
46394;BME280;32099;53.588;10.176;2023-07-31T12:50:22;99999.06;;;18.24;89.48
46394;BME280;32099;53.588;10.176;2023-07-31T12:52:48;99998.84;;;18.25;88.72
46394;BME280;32099;53.588;10.176;2023-07-31T12:55:13;99997.66;;;18.21;89.17
46394;BME280;32099;53.588;10.176;2023-07-31T12:57:39;99994.06;;;18.21;88.91
46394;BME280;32099;53.588;10.176;2023-07-31T13:00:06;99991.06;;;18.22;89.09